CheckWX is a tool to help pilots better visualize weather data.  It is not intended as a substitute for an official pre-flight weather briefing.

14:02:11 UTC

KSXT METAR
Sexton Summit Airport
Sexton Summit, Oregon, USA
Current

1 hour ago

KSXT 261256Z AUTO 35012KT 10SM CLR 07/M08 A3011 RMK AO2 SLP172 T00671083
Observed
Apr-26 @ 12:56 UTC
Wind
  • 350° at 12 KTS
Visibility
10 SM
Flight Rules
VFR
Cloud Levels
  • Clear skies
Temperature
C / 45°F
Dewpoint
-8°C / 18°F
Humidity
34%
Altimeter
30.11" Hg
Pressure
1019.62 hPa
Previous

2 hours ago

KSXT 261156Z AUTO 34008KT 10SM CLR 07/M06 A3011 RMK AO2 SLP174 T00671061 10089 20067 53004
Observed
Apr-26 @ 11:56 UTC
Wind
  • 340° at 8 KTS
Visibility
10 SM
Flight Rules
VFR
Cloud Levels
  • Clear skies
Temperature
C / 45°F
Dewpoint
-6°C / 21°F
Humidity
39%
Altimeter
30.11" Hg
Pressure
1019.62 hPa
Previous

3 hours ago

KSXT 261056Z AUTO 35008KT 10SM CLR 07/M06 A3010 RMK AO2 SLP168 T00671056
Observed
Apr-26 @ 10:56 UTC
Wind
  • 350° at 8 KTS
Visibility
10 SM
Flight Rules
VFR
Cloud Levels
  • Clear skies
Temperature
C / 45°F
Dewpoint
-6°C / 21°F
Humidity
39%
Altimeter
30.1" Hg
Pressure
1019.32 hPa